Time;durP1;ratioP1;P1;durP2;ratioP2;P2;SDS_P1;SDS_P2;PMS_P1;PMS_P2;Temp;Humidity;BMP_temperature;BMP_pressure;BME280_temperature;BME280_humidity;BME280_pressure;Samples;Min_cycle;Max_cycle;Signal;HPM_P1;HPM_P2
2021/07/03 00:01:10;;;;;;;16.40;10.50;;;;;;;15.36;100.00;100530.22;4999189;28;20049;-68
2021/07/03 00:03:54;;;;;;;14.52;10.57;;;;;;;15.31;100.00;100535.28;4985862;28;20048;-68
2021/07/03 00:06:37;;;;;;;13.50;9.45;;;;;;;15.24;100.00;100524.34;5014165;28;20044;-68
2021/07/03 00:09:22;;;;;;;17.85;10.55;;;;;;;15.23;100.00;100532.53;5013396;28;20458;-68
2021/07/03 00:12:07;;;;;;;15.50;10.88;;;;;;;15.20;100.00;100519.47;5013882;28;20480;-67
2021/07/03 00:14:51;;;;;;;19.08;9.90;;;;;;;15.18;100.00;100521.44;4999231;28;20566;-68
2021/07/03 00:17:35;;;;;;;11.93;9.32;;;;;;;15.15;100.00;100521.78;5014265;28;20129;-67
2021/07/03 00:20:21;;;;;;;17.63;11.15;;;;;;;15.13;100.00;100527.34;4999532;28;20179;-68
2021/07/03 00:23:05;;;;;;;14.23;9.88;;;;;;;15.13;100.00;100523.81;5013953;28;20099;-68
2021/07/03 00:25:51;;;;;;;14.80;10.35;;;;;;;15.12;100.00;100532.88;4999333;28;20048;-68
2021/07/03 00:28:35;;;;;;;15.85;11.32;;;;;;;15.12;100.00;100527.50;4985399;28;20057;-67
2021/07/03 00:31:19;;;;;;;13.15;10.25;;;;;;;15.11;100.00;100523.97;4985339;28;20111;-67
2021/07/03 00:34:03;;;;;;;14.52;10.70;;;;;;;15.09;100.00;100526.00;4999141;28;20064;-68
2021/07/03 00:36:47;;;;;;;17.02;10.68;;;;;;;15.07;100.00;100511.03;4998847;28;20057;-68
2021/07/03 00:39:31;;;;;;;13.70;10.40;;;;;;;15.06;100.00;100525.47;4998993;28;20053;-67
2021/07/03 00:42:15;;;;;;;14.88;10.23;;;;;;;15.01;100.00;100522.47;4998722;28;20045;-68
2021/07/03 00:45:00;;;;;;;11.73;9.68;;;;;;;14.98;100.00;100517.44;5013592;28;20133;-68
2021/07/03 00:47:44;;;;;;;17.27;11.07;;;;;;;14.95;100.00;100526.66;5013774;28;20502;-68
2021/07/03 00:50:28;;;;;;;14.55;10.52;;;;;;;14.94;100.00;100516.06;4985050;28;20115;-68
2021/07/03 00:53:12;;;;;;;16.00;10.88;;;;;;;14.91;100.00;100519.09;4998851;28;20130;-68
2021/07/03 00:55:56;;;;;;;15.20;10.25;;;;;;;14.91;100.00;100522.59;4998801;28;20044;-67
2021/07/03 00:58:40;;;;;;;18.27;10.50;;;;;;;14.90;100.00;100520.09;4984775;28;20080;-68
2021/07/03 01:01:24;;;;;;;15.80;10.30;;;;;;;14.85;100.00;100512.53;4984840;28;20096;-68
2021/07/03 01:04:08;;;;;;;13.23;10.00;;;;;;;14.82;100.00;100522.78;4985009;28;20140;-67
2021/07/03 01:06:52;;;;;;;16.25;10.77;;;;;;;14.78;100.00;100516.06;5013345;28;20510;-68
2021/07/03 01:09:36;;;;;;;14.40;10.07;;;;;;;14.74;100.00;100523.59;4998461;28;20117;-65
2021/07/03 01:12:23;;;;;;;14.70;11.07;;;;;;;14.73;100.00;100513.03;4998317;28;20492;-68
2021/07/03 01:15:07;;;;;;;15.55;11.15;;;;;;;14.72;100.00;100512.19;4998938;28;20418;-67
2021/07/03 01:17:52;;;;;;;11.93;9.88;;;;;;;14.71;100.00;100528.44;4998563;28;20053;-67
2021/07/03 01:20:36;;;;;;;16.63;10.43;;;;;;;14.68;100.00;100531.47;4998608;28;20083;-66
2021/07/03 01:23:22;;;;;;;17.33;10.88;;;;;;;14.63;100.00;100528.41;4998466;28;20153;-68
2021/07/03 01:26:06;;;;;;;12.35;9.95;;;;;;;14.59;100.00;100532.44;4998792;28;20121;-68
2021/07/03 01:28:50;;;;;;;19.05;10.48;;;;;;;14.59;100.00;100529.75;5013133;28;20092;-67
2021/07/03 01:31:34;;;;;;;13.88;10.40;;;;;;;14.57;100.00;100524.56;4998257;28;20062;-68
2021/07/03 01:34:20;;;;;;;18.15;10.00;;;;;;;14.57;100.00;100534.47;4998462;28;20049;-68
2021/07/03 01:37:04;;;;;;;12.43;9.55;;;;;;;14.53;100.00;100533.09;4998412;28;20040;-67
2021/07/03 01:39:49;;;;;;;14.05;10.65;;;;;;;14.52;100.00;100531.41;4998499;28;20133;-67
2021/07/03 01:42:33;;;;;;;13.85;10.77;;;;;;;14.49;100.00;100532.56;4998146;28;20129;-67
2021/07/03 01:45:17;;;;;;;15.18;10.52;;;;;;;14.47;100.00;100534.56;5013274;28;20056;-68
2021/07/03 01:48:00;;;;;;;15.30;10.23;;;;;;;14.44;100.00;100528.69;4998581;28;20120;-65
2021/07/03 01:50:44;;;;;;;15.65;11.82;;;;;;;14.43;100.00;100532.38;5002020;28;20049;-67
2021/07/03 01:53:28;;;;;;;16.98;11.45;;;;;;;14.38;100.00;100535.56;5016929;28;20092;-67
2021/07/03 01:56:12;;;;;;;13.73;10.52;;;;;;;14.36;100.00;100525.97;5016784;28;20129;-68
2021/07/03 01:58:57;;;;;;;13.82;10.85;;;;;;;14.35;100.00;100529.66;5001955;28;20060;-67
2021/07/03 02:01:40;;;;;;;14.73;10.25;;;;;;;14.31;100.00;100528.31;5001809;28;20069;-68
2021/07/03 02:04:24;;;;;;;13.35;10.70;;;;;;;14.29;100.00;100524.97;5016700;28;20103;-68
2021/07/03 02:07:08;;;;;;;15.35;9.98;;;;;;;14.27;100.00;100526.97;5001796;28;20076;-67
2021/07/03 02:09:52;;;;;;;12.95;10.00;;;;;;;14.24;100.00;100516.56;5016562;28;20063;-66
2021/07/03 02:12:36;;;;;;;16.05;10.65;;;;;;;14.23;100.00;100514.88;4987876;28;20084;-67
2021/07/03 02:15:20;;;;;;;13.77;10.60;;;;;;;14.19;100.00;100516.22;5016194;28;20045;-67
2021/07/03 02:18:04;;;;;;;13.95;10.77;;;;;;;14.18;100.00;100517.22;5016447;28;20044;-67
2021/07/03 02:20:49;;;;;;;14.07;10.82;;;;;;;14.15;100.00;100506.75;5001372;28;20556;-68
2021/07/03 02:23:33;;;;;;;14.57;10.55;;;;;;;14.16;100.00;100503.09;5001169;28;20093;-67
2021/07/03 02:26:17;;;;;;;16.67;10.55;;;;;;;14.13;100.00;100508.75;5001388;28;20060;-67
2021/07/03 02:29:01;;;;;;;14.38;10.57;;;;;;;14.12;100.00;100501.72;5016230;28;20052;-67
2021/07/03 02:31:45;;;;;;;14.52;11.18;;;;;;;14.11;100.00;100505.41;5001195;28;20092;-67
2021/07/03 02:34:28;;;;;;;13.15;10.25;;;;;;;14.08;100.00;100511.09;5016121;28;20411;-68
2021/07/03 02:37:14;;;;;;;15.00;10.80;;;;;;;14.02;100.00;100511.72;4987431;28;20124;-68
2021/07/03 02:39:58;;;;;;;16.10;11.07;;;;;;;13.98;100.00;100513.06;5001378;28;20128;-68
2021/07/03 02:42:42;;;;;;;15.77;11.60;;;;;;;13.94;100.00;100514.38;5000908;28;20104;-68
2021/07/03 02:45:26;;;;;;;13.90;10.57;;;;;;;13.93;100.00;100507.31;4987405;28;20068;-68
2021/07/03 02:48:09;;;;;;;14.27;11.13;;;;;;;13.91;100.00;100509.34;5001063;28;20107;-67
2021/07/03 02:50:53;;;;;;;15.50;11.23;;;;;;;13.90;100.00;100502.28;5015771;28;20048;-68
2021/07/03 02:53:37;;;;;;;14.68;10.82;;;;;;;13.91;100.00;100509.34;5015759;28;20049;-67
2021/07/03 02:56:21;;;;;;;12.68;10.25;;;;;;;13.91;100.00;100502.16;4987085;28;20053;-68
2021/07/03 02:59:06;;;;;;;15.45;10.18;;;;;;;13.92;100.00;100500.28;5000656;28;20518;-67
2021/07/03 03:01:50;;;;;;;17.85;11.18;;;;;;;13.93;100.00;100496.59;5015278;28;20590;-67
2021/07/03 03:04:34;;;;;;;16.20;10.35;;;;;;;13.91;100.00;100495.94;5000776;28;20172;-67
2021/07/03 03:07:18;;;;;;;14.13;10.50;;;;;;;13.89;100.00;100493.41;5000398;28;20051;-68
2021/07/03 03:10:03;;;;;;;11.90;10.10;;;;;;;13.90;100.00;100496.94;5000609;28;20096;-68
2021/07/03 03:12:48;;;;;;;15.32;10.35;;;;;;;13.89;100.00;100500.63;5023398;23;20116;-68
2021/07/03 03:15:32;;;;;;;17.23;10.10;;;;;;;13.88;100.00;100498.94;5000307;28;20049;-68
2021/07/03 03:18:15;;;;;;;17.23;11.05;;;;;;;13.84;100.00;100503.78;5015306;28;20053;-68
2021/07/03 03:20:59;;;;;;;15.02;10.82;;;;;;;13.83;100.00;100498.56;5000349;28;20411;-69
2021/07/03 03:23:43;;;;;;;13.20;10.18;;;;;;;13.84;100.00;100494.88;5000637;28;20407;-68
2021/07/03 03:26:27;;;;;;;13.75;10.07;;;;;;;13.85;100.00;100493.88;5000373;28;20072;-68
2021/07/03 03:29:11;;;;;;;13.18;9.80;;;;;;;13.85;100.00;100501.91;5015128;28;20108;-68
2021/07/03 03:31:55;;;;;;;15.48;10.65;;;;;;;13.80;100.00;100501.56;5000152;28;20052;-67
2021/07/03 03:34:39;;;;;;;14.65;9.57;;;;;;;13.77;100.00;100502.72;5014926;28;20518;-68
2021/07/03 03:37:23;;;;;;;12.00;9.52;;;;;;;13.75;100.00;100510.06;4986377;28;20092;-68
2021/07/03 03:40:07;;;;;;;13.80;10.18;;;;;;;13.73;100.00;100501.38;4986354;28;20052;-68
2021/07/03 03:42:51;;;;;;;12.38;9.93;;;;;;;13.73;100.00;100493.31;4999789;28;20103;-68
2021/07/03 03:45:35;;;;;;;13.15;10.20;;;;;;;13.74;100.00;100504.88;5000006;28;20471;-67
2021/07/03 03:48:19;;;;;;;14.57;9.50;;;;;;;13.76;100.00;100505.56;5014748;28;20068;-68
2021/07/03 03:51:04;;;;;;;13.80;10.15;;;;;;;13.78;100.00;100503.56;4999525;28;20052;-68
2021/07/03 03:53:48;;;;;;;17.13;10.07;;;;;;;13.81;100.00;100508.59;4999832;28;20092;-68
2021/07/03 03:56:32;;;;;;;10.57;9.38;;;;;;;13.83;100.00;100501.25;5014354;28;20560;-66
2021/07/03 03:59:16;;;;;;;12.80;10.32;;;;;;;13.83;100.00;100506.59;4999487;28;20175;-68
2021/07/03 04:02:00;;;;;;;18.35;9.75;;;;;;;13.83;100.00;100506.59;4999592;28;20517;-68
2021/07/03 04:04:45;;;;;;;13.02;9.63;;;;;;;13.83;100.00;100501.25;4986260;28;20057;-68
2021/07/03 04:07:29;;;;;;;13.82;9.32;;;;;;;13.84;100.00;100502.91;4985653;28;20092;-68
2021/07/03 04:10:14;;;;;;;13.73;9.65;;;;;;;13.85;100.00;100502.75;4999291;28;20080;-67
2021/07/03 04:12:58;;;;;;;12.43;9.50;;;;;;;13.87;100.00;100507.97;5013630;28;20044;-67
2021/07/03 04:15:42;;;;;;;12.85;9.57;;;;;;;13.88;100.00;100509.66;4985996;28;20103;-68
2021/07/03 04:18:26;;;;;;;13.70;9.10;;;;;;;13.91;100.00;100514.69;4999128;28;20514;-68
2021/07/03 04:21:10;;;;;;;14.20;9.68;;;;;;;13.94;100.00;100509.00;5014161;28;20052;-68
2021/07/03 04:23:53;;;;;;;12.50;9.52;;;;;;;13.97;100.00;100508.72;4999318;28;20088;-68
2021/07/03 04:26:37;;;;;;;13.70;8.63;;;;;;;14.01;100.00;100515.41;5014144;28;20088;-67
2021/07/03 04:29:21;;;;;;;16.15;10.07;;;;;;;14.07;100.00;100499.53;4999532;28;20056;-68
2021/07/03 04:32:06;;;;;;;14.75;10.15;;;;;;;14.13;100.00;100506.09;4985302;28;20147;-67
2021/07/03 04:34:50;;;;;;;14.52;10.23;;;;;;;14.20;100.00;100499.94;4999136;28;20427;-68
2021/07/03 04:37:34;;;;;;;14.25;10.15;;;;;;;14.29;100.00;100503.50;4999134;28;20419;-68
2021/07/03 04:40:18;;;;;;;12.90;9.98;;;;;;;14.36;100.00;100504.53;4999028;28;20510;-67
2021/07/03 04:43:02;;;;;;;11.65;9.23;;;;;;;14.43;100.00;100505.56;5013624;28;20064;-68
2021/07/03 04:45:46;;;;;;;13.15;9.95;;;;;;;14.50;100.00;100506.59;4984946;28;20573;-68
2021/07/03 04:48:29;;;;;;;13.02;10.57;;;;;;;14.57;100.00;100511.13;4985280;28;20127;-68
2021/07/03 04:51:13;;;;;;;12.38;9.60;;;;;;;14.64;100.00;100508.63;4998564;28;20107;-69
2021/07/03 04:53:57;;;;;;;17.63;9.43;;;;;;;14.72;100.00;100508.66;4998702;28;20096;-68
2021/07/03 04:56:41;;;;;;;;;;;;;;;14.78;100.00;100510.69;4999372;28;20052;-66
2021/07/03 04:59:25;;;;;;;12.63;9.30;;;;;;;14.86;100.00;100513.38;4998589;28;19920;-68
2021/07/03 05:02:11;;;;;;;11.38;9.63;;;;;;;14.93;100.00;100503.66;4998548;28;20053;-66
2021/07/03 05:04:55;;;;;;;12.57;9.07;;;;;;;15.00;100.00;100504.69;4985302;28;20053;-68
2021/07/03 05:07:42;;;;;;;14.88;9.40;;;;;;;15.07;100.00;100505.66;5013542;28;20494;-68
2021/07/03 05:10:26;;;;;;;13.52;10.00;;;;;;;15.14;100.00;100506.69;4998933;28;20114;-68
2021/07/03 05:13:09;;;;;;;16.00;9.82;;;;;;;15.20;100.00;100496.13;4984619;28;20100;-68
2021/07/03 05:15:53;;;;;;;13.32;9.00;;;;;;;15.28;100.00;100497.94;4999035;28;20072;-68
2021/07/03 05:18:37;;;;;;;13.43;9.20;;;;;;;15.36;100.00;100492.63;4998770;28;20056;-68
2021/07/03 05:21:21;;;;;;;10.90;9.05;;;;;;;15.45;100.00;100488.91;4998392;28;20092;-68
2021/07/03 05:24:05;;;;;;;12.15;8.07;;;;;;;15.56;100.00;100491.25;5000641;28;20510;-66
2021/07/03 05:26:49;;;;;;;12.50;8.32;;;;;;;15.66;100.00;100493.56;5002545;28;20518;-68
2021/07/03 05:29:33;;;;;;;10.82;8.07;;;;;;;15.77;100.00;100490.53;5002381;28;20534;-68
2021/07/03 05:32:17;;;;;;;11.63;8.65;;;;;;;15.90;100.00;100485.47;4988368;28;20088;-68
2021/07/03 05:35:01;;;;;;;11.23;8.35;;;;;;;16.04;100.00;100498.19;4988395;28;20056;-68
2021/07/03 05:37:45;;;;;;;11.73;8.18;;;;;;;16.15;100.00;100499.66;4988966;28;20052;-68
2021/07/03 05:40:29;;;;;;;8.63;7.72;;;;;;;16.30;100.00;100497.91;5017046;28;20092;-68
2021/07/03 05:43:13;;;;;;;12.10;8.13;;;;;;;16.43;100.00;100498.22;5016992;28;20136;-68
2021/07/03 05:45:57;;;;;;;10.95;8.50;;;;;;;16.59;98.47;100509.72;5002311;28;20064;-68
2021/07/03 05:48:42;;;;;;;10.23;7.80;;;;;;;16.71;98.08;100502.94;4988725;28;20056;-68
2021/07/03 05:51:27;;;;;;;10.13;7.57;;;;;;;16.83;97.62;100497.97;5002052;28;20068;-68
2021/07/03 05:54:12;;;;;;;11.27;7.57;;;;;;;16.93;96.71;100499.44;5016921;28;20056;-68
2021/07/03 05:56:55;;;;;;;9.35;7.53;;;;;;;17.03;96.11;100497.34;4988275;28;20563;-68
2021/07/03 05:59:40;;;;;;;10.18;7.95;;;;;;;17.13;95.28;100500.63;5016787;28;20573;-68
2021/07/03 06:02:24;;;;;;;11.20;7.88;;;;;;;17.22;95.21;100490.63;5016587;28;20064;-68
2021/07/03 06:05:09;;;;;;;10.02;7.80;;;;;;;17.32;94.95;100489.31;5001883;28;20104;-68
2021/07/03 06:07:53;;;;;;;8.45;7.53;;;;;;;17.40;94.14;100489.28;4988022;28;20052;-66
2021/07/03 06:10:37;;;;;;;9.45;7.75;;;;;;;17.50;93.77;100492.56;5001526;28;20565;-68
2021/07/03 06:13:21;;;;;;;14.35;7.90;;;;;;;17.61;93.58;100491.31;4987532;28;20100;-67
2021/07/03 06:16:05;;;;;;;14.20;8.57;;;;;;;17.73;94.38;100490.63;5001623;28;20108;-68
2021/07/03 06:18:49;;;;;;;11.15;8.23;;;;;;;17.81;92.54;100481.66;4987799;28;20116;-68
2021/07/03 06:21:32;;;;;;;13.02;9.15;;;;;;;17.93;90.31;100485.56;5016193;28;20149;-68
2021/07/03 06:24:16;;;;;;;13.00;8.65;;;;;;;18.04;89.70;100491.34;5001468;28;20610;-68
2021/07/03 06:27:00;;;;;;;11.30;8.68;;;;;;;18.13;88.82;100492.06;5001142;28;20068;-67
2021/07/03 06:29:44;;;;;;;;;;;;;;;18.22;87.68;100491.75;4987924;28;20104;-67
2021/07/03 06:32:28;;;;;;;14.02;9.02;;;;;;;18.37;89.50;100489.94;5000735;28;19940;-68
2021/07/03 06:35:12;;;;;;;9.35;8.23;;;;;;;18.46;90.37;100488.81;4999856;28;20108;-68
2021/07/03 06:37:56;;;;;;;12.98;8.93;;;;;;;18.58;88.28;100477.31;5000382;28;20133;-68
2021/07/03 06:40:40;;;;;;;13.27;8.70;;;;;;;18.69;87.32;100478.69;4986964;28;20048;-68
2021/07/03 06:43:30;;;;;;;11.57;8.30;;;;;;;18.85;89.29;100478.44;4986717;28;20041;-68
2021/07/03 06:46:14;;;;;;;12.60;8.73;;;;;;;18.96;86.15;100481.47;5000064;28;20084;-69
2021/07/03 06:48:58;;;;;;;10.48;8.90;;;;;;;19.00;84.39;100481.91;5015517;28;20049;-67
2021/07/03 06:51:42;;;;;;;10.90;9.65;;;;;;;19.12;80.98;100464.16;5000185;28;20123;-69
2021/07/03 06:54:26;;;;;;;11.93;8.93;;;;;;;19.23;80.07;100466.38;4986462;28;20080;-67
2021/07/03 06:57:12;;;;;;;13.25;8.50;;;;;;;19.25;81.01;100464.28;5015255;28;20061;-69
2021/07/03 06:59:56;;;;;;;12.45;9.43;;;;;;;19.38;77.08;100465.25;5000204;28;20049;-68
2021/07/03 07:02:40;;;;;;;17.15;9.77;;;;;;;19.47;77.89;100463.22;4999776;28;20089;-68
2021/07/03 07:05:23;;;;;;;17.67;11.40;;;;;;;19.54;80.05;100469.53;5000331;28;20065;-68
2021/07/03 07:08:07;;;;;;;10.93;8.82;;;;;;;19.60;80.38;100471.47;5014629;28;20531;-69
2021/07/03 07:10:51;;;;;;;12.93;8.90;;;;;;;19.65;79.95;100468.97;4999901;28;20565;-70
2021/07/03 07:13:35;;;;;;;10.55;8.85;;;;;;;19.68;79.73;100468.59;4999685;28;20176;-70
2021/07/03 07:16:19;;;;;;;;;;;;;;;19.76;78.58;100465.72;5000042;28;20048;-67
2021/07/03 07:19:03;;;;;;;11.45;8.40;;;;;;;19.84;79.58;100466.44;4999574;28;20429;-71
2021/07/03 07:21:47;;;;;;;10.75;8.18;;;;;;;19.94;77.51;100466.91;4985589;28;20053;-70
2021/07/03 07:24:31;;;;;;;;;;;;;;;20.02;73.08;100460.50;4999835;28;20072;-68
2021/07/03 07:27:15;;;;;;;10.10;7.95;;;;;;;20.16;72.52;100470.38;4999516;28;20012;-70
2021/07/03 07:30:00;;;;;;;11.40;8.30;;;;;;;20.25;74.60;100463.75;4999045;28;20479;-69
2021/07/03 07:32:45;;;;;;;10.88;8.38;;;;;;;20.33;76.01;100461.69;4999368;28;20048;-69
2021/07/03 07:35:29;;;;;;;12.02;8.27;;;;;;;20.41;75.27;100469.66;4999916;28;20052;-69
2021/07/03 07:38:13;;;;;;;16.73;9.45;;;;;;;20.50;74.21;100471.16;4985563;28;20096;-70
2021/07/03 07:40:57;;;;;;;13.30;8.77;;;;;;;20.56;73.58;100462.22;4999407;28;20065;-70
2021/07/03 07:43:42;;;;;;;9.25;8.27;;;;;;;20.59;75.01;100460.97;4999430;28;20085;-70
2021/07/03 07:46:26;;;;;;;10.38;8.68;;;;;;;20.65;77.00;100454.75;5013239;28;20053;-70
2021/07/03 07:49:10;;;;;;;9.98;8.48;;;;;;;20.71;75.48;100452.03;4999287;28;20069;-68
2021/07/03 07:51:54;;;;;;;16.77;8.95;;;;;;;20.87;73.39;100453.56;4999080;28;20048;-69
2021/07/03 07:54:38;;;;;;;11.07;8.32;;;;;;;20.87;74.02;100453.56;4998981;28;20108;-69
2021/07/03 07:57:22;;;;;;;9.05;8.07;;;;;;;20.94;74.29;100444.41;4999139;28;20465;-70
2021/07/03 08:00:07;;;;;;;11.68;8.77;;;;;;;20.98;72.83;100444.81;5013974;28;20466;-69
2021/07/03 08:02:51;;;;;;;9.40;8.20;;;;;;;21.08;72.01;100447.97;4985075;28;20052;-67
2021/07/03 08:05:35;;;;;;;8.73;7.45;;;;;;;21.15;70.80;100441.50;4985311;28;20107;-70
2021/07/03 08:08:20;;;;;;;12.35;7.43;;;;;;;21.23;69.29;100439.44;4998808;28;20529;-66
2021/07/03 08:13:54;;;;;;;8.70;7.80;;;;;;;21.43;69.79;100434.84;4973066;28;20054;-67
2021/07/03 08:16:38;;;;;;;9.52;8.13;;;;;;;21.49;68.57;100442.13;4959954;28;20106;-69
2021/07/03 08:19:23;;;;;;;8.45;7.32;;;;;;;21.54;66.56;100436.91;4959904;28;20050;-69
2021/07/03 08:22:06;;;;;;;8.23;7.20;;;;;;;21.59;66.01;100441.72;4974371;28;20108;-69
2021/07/03 08:24:50;;;;;;;12.77;8.18;;;;;;;21.65;67.75;100430.88;4973475;28;20054;-67
2021/07/03 08:27:34;;;;;;;;;;;;;;;21.72;65.91;100437.13;4973645;28;20126;-66
2021/07/03 08:30:19;;;;;;;11.23;7.73;;;;;;;21.86;66.94;100430.63;4973503;28;20430;-69
2021/07/03 08:33:04;;;;;;;10.23;7.78;;;;;;;21.91;65.65;100428.09;4973254;28;20267;-69
2021/07/03 08:35:47;;;;;;;10.07;7.65;;;;;;;22.01;67.06;100423.03;4973289;28;20057;-67
2021/07/03 08:38:32;;;;;;;;;;;;;;;22.11;68.90;100412.56;4959849;28;20117;-69
2021/07/03 08:41:16;;;;;;;9.82;8.07;;;;;;;22.22;69.63;100408.34;4959333;28;19973;-68
2021/07/03 08:44:00;;;;;;;8.98;7.78;;;;;;;22.31;67.26;100404.34;4973489;28;20041;-68
2021/07/03 08:46:44;;;;;;;;;;;;;;;22.45;67.70;100409.53;4973577;28;20460;-70
2021/07/03 08:49:28;;;;;;;11.02;7.63;;;;;;;22.55;66.91;100409.06;4959426;28;20000;-68
2021/07/03 08:52:12;;;;;;;;;;;;;;;22.62;65.42;100405.25;4974477;28;20123;-69
2021/07/03 08:55:21;;;;;;;9.60;7.67;;;;;;;22.69;64.73;100406.03;4973272;28;20375;-66
2021/07/03 08:58:06;;;;;;;9.68;7.13;;;;;;;22.77;63.72;100405.78;4972990;28;20272;-68
2021/07/03 09:00:50;;;;;;;11.57;7.75;;;;;;;22.90;62.33;100405.69;4973379;28;20050;-68
2021/07/03 09:03:34;;;;;;;9.05;7.30;;;;;;;22.98;60.97;100405.44;4973125;28;20496;-69
2021/07/03 09:06:31;;;;;;;9.90;7.97;;;;;;;23.12;62.32;100398.00;4973240;28;20126;-69
2021/07/03 09:09:24;;;;;;;12.15;7.82;;;;;;;23.28;61.47;100392.88;4972840;28;20045;-68
2021/07/03 09:12:09;;;;;;;9.32;6.65;;;;;;;23.44;59.59;100386.84;4986353;28;20058;-67
2021/07/03 09:14:53;;;;;;;10.65;7.30;;;;;;;23.54;59.93;100394.50;4973100;28;20360;-69
2021/07/03 09:17:49;;;;;;;8.02;7.15;;;;;;;23.70;62.18;100394.75;4973010;28;20070;-69
2021/07/03 09:20:35;;;;;;;8.88;6.97;;;;;;;23.83;58.31;100393.78;4973725;28;20045;-68
2021/07/03 09:23:22;;;;;;;10.50;7.55;;;;;;;24.05;58.54;100395.81;4972332;28;20062;-69
2021/07/03 09:26:09;;;;;;;8.45;7.43;;;;;;;24.21;57.13;100396.03;4986430;28;20117;-69
2021/07/03 09:28:53;;;;;;;8.32;7.30;;;;;;;24.41;57.66;100390.34;4972721;28;20101;-68
2021/07/03 09:31:37;;;;;;;7.50;6.72;;;;;;;24.54;57.90;100387.47;4972552;28;20519;-67
2021/07/03 09:34:22;;;;;;;10.65;7.45;;;;;;;24.70;55.51;100386.81;4972571;28;20054;-69
2021/07/03 09:37:05;;;;;;;8.43;6.90;;;;;;;24.90;56.53;100384.63;4987787;28;20519;-66
2021/07/03 09:39:49;;;;;;;;;;;;;;;25.11;54.96;100373.97;4973024;28;20073;-69
2021/07/03 09:42:38;;;;;;;8.63;6.85;;;;;;;25.23;52.96;100369.38;4972350;28;19961;-70
2021/07/03 09:45:23;;;;;;;9.43;6.88;;;;;;;25.46;53.76;100363.09;4986070;28;20069;-68
2021/07/03 09:48:10;;;;;;;10.02;6.88;;;;;;;25.72;52.37;100368.09;4959123;28;20412;-68
2021/07/03 09:50:54;;;;;;;11.10;6.82;;;;;;;25.97;53.67;100360.44;4972409;28;20428;-68
2021/07/03 09:53:38;;;;;;;;;;;;;;;26.31;51.92;100359.50;4973527;28;20188;-68
2021/07/03 09:56:22;;;;;;;7.93;6.68;;;;;;;26.72;50.33;100362.81;4972298;28;20374;-68
2021/07/03 09:59:07;;;;;;;7.10;6.03;;;;;;;27.01;48.39;100357.00;4973264;28;20148;-68
2021/07/03 10:01:50;;;;;;;6.90;5.53;;;;;;;27.09;46.04;100350.31;4972484;28;20045;-69
2021/07/03 10:04:35;;;;;;;;;;;;;;;27.10;46.25;100349.25;4972796;28;20081;-68
2021/07/03 10:07:25;;;;;;;5.95;5.35;;;;;;;27.27;44.87;100356.38;4973159;28;19964;-69
2021/07/03 10:10:13;;;;;;;7.78;5.10;;;;;;;27.52;45.99;100353.19;4973953;28;20460;-68
2021/07/03 10:13:09;;;;;;;6.25;5.68;;;;;;;27.65;43.77;100352.84;4975717;28;20054;-68
2021/07/03 10:16:04;;;;;;;7.00;5.60;;;;;;;27.99;42.65;100354.41;4975118;28;20412;-68
2021/07/03 10:18:48;;;;;;;6.13;5.50;;;;;;;28.37;39.85;100346.97;4975344;28;20137;-68
2021/07/03 10:21:33;;;;;;;6.45;5.63;;;;;;;28.84;40.93;100341.69;4975343;28;20420;-68
2021/07/03 10:24:22;;;;;;;6.22;5.63;;;;;;;29.29;39.58;100334.69;4975839;28;20057;-68
2021/07/03 10:27:18;;;;;;;6.25;5.65;;;;;;;29.86;40.24;100318.28;4975596;28;20097;-68
2021/07/03 10:30:05;;;;;;;11.55;5.43;;;;;;;30.42;37.27;100324.53;4975579;28;20129;-67
2021/07/03 10:33:00;;;;;;;5.30;4.80;;;;;;;31.25;32.38;100317.75;4975235;28;20049;-69
2021/07/03 10:35:50;;;;;;;5.93;4.95;;;;;;;32.65;30.84;100328.25;4976544;28;20142;-67
2021/07/03 10:38:41;;;;;;;6.25;4.90;;;;;;;34.36;29.62;100318.78;4975169;28;20049;-67
2021/07/03 10:41:28;;;;;;;5.65;5.00;;;;;;;36.33;26.31;100321.34;4988961;28;20483;-66
2021/07/03 10:44:12;;;;;;;5.50;4.97;;;;;;;37.84;25.40;100313.63;4961650;28;20053;-67
2021/07/03 10:47:06;;;;;;;5.20;4.20;;;;;;;38.95;20.80;100318.28;4976325;28;20061;-67
2021/07/03 10:49:50;;;;;;;5.10;4.60;;;;;;;39.12;19.95;100323.81;4976236;28;20049;-65
2021/07/03 10:52:39;;;;;;;4.45;4.00;;;;;;;39.38;19.25;100325.44;4974841;28;20069;-67
2021/07/03 10:55:40;;;;;;;5.20;4.70;;;;;;;40.09;18.76;100316.13;4974955;28;20050;-68
2021/07/03 10:58:28;;;;;;;4.60;4.20;;;;;;;40.46;19.28;100318.03;4975290;28;20049;-66
2021/07/03 11:01:13;;;;;;;4.18;3.88;;;;;;;41.27;18.66;100319.16;4974629;28;20065;-67
2021/07/03 11:03:57;;;;;;;4.32;4.03;;;;;;;41.51;17.34;100318.41;4974850;28;20455;-67
2021/07/03 11:06:53;;;;;;;4.97;3.92;;;;;;;41.90;17.17;100317.75;4975489;28;20050;-65
2021/07/03 11:09:37;;;;;;;4.55;4.15;;;;;;;42.41;17.75;100315.06;4974742;28;20093;-66
2021/07/03 11:12:23;;;;;;;4.95;4.55;;;;;;;42.97;15.46;100308.38;4974152;28;20049;-66
2021/07/03 11:15:07;;;;;;;4.63;4.10;;;;;;;43.00;16.70;100296.47;4960889;28;20518;-67
2021/07/03 11:17:51;;;;;;;4.70;4.30;;;;;;;43.00;15.97;100293.66;4974345;28;20086;-66
2021/07/03 11:20:37;;;;;;;4.40;4.00;;;;;;;43.60;14.54;100282.88;4974937;28;20357;-67
2021/07/03 11:23:21;;;;;;;5.05;4.50;;;;;;;43.64;16.72;100275.34;4974428;28;20471;-66
2021/07/03 11:26:13;;;;;;;4.32;4.03;;;;;;;43.91;16.12;100270.84;4975291;28;20082;-67
2021/07/03 11:28:58;;;;;;;5.00;3.90;;;;;;;44.24;15.82;100272.03;4975383;28;20068;-66
2021/07/03 11:31:42;;;;;;;4.15;3.85;;;;;;;43.61;15.47;100261.25;4974333;28;20078;-67
2021/07/03 11:34:26;;;;;;;4.00;3.70;;;;;;;42.63;16.52;100266.91;4974238;28;20053;-66
2021/07/03 11:37:10;;;;;;;4.22;3.92;;;;;;;42.80;15.51;100261.78;4974309;28;20049;-66
2021/07/03 11:39:54;;;;;;;7.60;4.10;;;;;;;42.82;15.11;100256.63;4973891;28;20097;-67
2021/07/03 11:42:45;;;;;;;4.50;4.10;;;;;;;43.08;15.25;100250.56;4973903;28;20444;-67
2021/07/03 11:45:32;;;;;;;4.22;3.88;;;;;;;44.11;14.74;100252.84;4960725;28;20085;-67
2021/07/03 11:48:18;;;;;;;4.32;3.92;;;;;;;44.54;14.04;100252.66;4987684;28;20480;-68
2021/07/03 11:51:03;;;;;;;3.92;3.53;;;;;;;45.18;13.36;100249.94;4973984;28;20082;-68
2021/07/03 11:53:51;;;;;;;3.80;3.40;;;;;;;45.35;12.13;100249.47;4973900;28;20045;-67
2021/07/03 11:56:35;;;;;;;4.07;3.28;;;;;;;45.41;13.55;100242.31;4973827;28;20480;-67
2021/07/03 11:59:19;;;;;;;8.43;3.40;;;;;;;45.16;12.15;100246.69;4987512;28;20465;-68
2021/07/03 12:02:04;;;;;;;3.20;2.95;;;;;;;45.06;11.90;100236.81;4973761;28;20097;-66
2021/07/03 12:04:48;;;;;;;3.58;3.28;;;;;;;44.65;12.68;100245.25;4974054;28;20081;-66
2021/07/03 12:07:32;;;;;;;3.28;3.08;;;;;;;45.31;13.40;100240.94;4973710;28;20097;-66
2021/07/03 12:10:16;;;;;;;4.40;4.00;;;;;;;45.29;13.14;100234.06;4973718;28;20144;-67
2021/07/03 12:13:00;;;;;;;3.80;3.50;;;;;;;45.59;12.29;100232.19;4986776;28;20182;-67
2021/07/03 12:15:46;;;;;;;9.65;4.15;;;;;;;45.79;12.25;100228.88;4973634;28;20134;-67
2021/07/03 12:18:35;;;;;;;4.25;3.85;;;;;;;46.62;11.60;100226.50;4973206;28;20054;-67
2021/07/03 12:21:19;;;;;;;3.90;3.60;;;;;;;46.91;11.80;100221.97;4973327;28;20101;-67
2021/07/03 12:24:06;;;;;;;4.00;3.70;;;;;;;46.95;11.93;100212.34;4973303;28;20113;-67
2021/07/03 12:26:52;;;;;;;4.45;4.00;;;;;;;46.61;12.97;100207.09;4987290;28;20050;-66
2021/07/03 12:29:36;;;;;;;4.93;4.25;;;;;;;45.74;12.23;100214.31;4974286;28;20057;-66
2021/07/03 12:32:20;;;;;;;4.93;4.53;;;;;;;44.25;13.99;100200.56;4972445;28;20568;-66
2021/07/03 12:35:10;;;;;;;4.50;4.10;;;;;;;44.40;14.31;100201.69;4974143;28;20476;-66
2021/07/03 12:37:58;;;;;;;4.30;4.00;;;;;;;43.66;13.24;100193.59;4974443;28;20053;-66
2021/07/03 12:40:43;;;;;;;4.47;3.72;;;;;;;43.96;14.20;100187.09;4987230;28;20164;-67